createdAt,value
2023-01-17T00:01:33.919Z,3.86
2023-01-17T00:04:21.202Z,3.86
2023-01-17T00:07:06.898Z,3.84
2023-01-17T00:09:52.577Z,3.85
2023-01-17T00:12:21.427Z,3.81
2023-01-17T00:14:50.201Z,3.80
2023-01-17T00:17:18.535Z,3.77
2023-01-17T00:20:05.940Z,3.74
2023-01-17T00:22:51.688Z,3.76
2023-01-17T00:25:39.482Z,3.78
2023-01-17T00:28:07.142Z,3.70
2023-01-17T00:30:34.403Z,3.65
2023-01-17T00:33:01.601Z,3.65
2023-01-17T00:35:31.742Z,3.60
2023-01-17T00:38:07.179Z,3.59
2023-01-17T00:40:35.651Z,3.54
2023-01-17T00:43:22.243Z,3.50
2023-01-17T00:46:08.338Z,3.47
2023-01-17T00:48:54.573Z,3.46
2023-01-17T00:51:42.628Z,3.42
2023-01-17T00:54:29.302Z,3.39
2023-01-17T00:57:15.412Z,3.35
2023-01-17T01:00:01.052Z,3.32
2023-01-17T01:02:47.842Z,3.28
2023-01-17T01:05:34.071Z,3.28
2023-01-17T01:08:22.223Z,3.26
2023-01-17T01:11:07.763Z,3.25
2023-01-17T01:13:53.418Z,3.25
2023-01-17T01:16:39.217Z,3.27
2023-01-17T01:19:25.001Z,3.24
2023-01-17T01:22:10.728Z,3.24
2023-01-17T01:24:57.611Z,3.22
2023-01-17T01:27:43.296Z,3.23
2023-01-17T01:30:29.893Z,3.25
2023-01-17T01:33:15.474Z,3.23
2023-01-17T01:35:43.851Z,3.25
2023-01-17T01:38:12.167Z,3.21
2023-01-17T01:40:50.932Z,3.21
2023-01-17T01:43:21.486Z,3.20
2023-01-17T01:45:53.978Z,3.17
2023-01-17T01:48:32.856Z,3.15
2023-01-17T01:51:02.991Z,3.16
2023-01-17T01:53:34.118Z,3.15
2023-01-17T01:56:07.411Z,3.17
2023-01-17T01:58:37.849Z,3.18
2023-01-17T02:01:09.173Z,3.18
2023-01-17T02:03:41.197Z,3.20
2023-01-17T02:06:21.085Z,3.19
2023-01-17T02:08:50.088Z,3.17
2023-01-17T02:11:20.137Z,3.18
2023-01-17T02:13:48.490Z,3.19
2023-01-17T02:16:29.395Z,3.24
2023-01-17T02:19:12.543Z,3.23
2023-01-17T02:21:48.908Z,3.22
2023-01-17T02:24:38.607Z,3.22
2023-01-17T02:27:25.458Z,3.21
2023-01-17T02:30:28.725Z,3.19
2023-01-17T02:33:17.545Z,3.19
2023-01-17T02:35:56.490Z,3.23
2023-01-17T02:38:35.076Z,3.21
2023-01-17T02:41:07.934Z,3.24
2023-01-17T02:43:38.387Z,3.21
2023-01-17T02:46:09.827Z,3.23
2023-01-17T02:48:39.715Z,3.27
2023-01-17T02:51:36.742Z,3.29
2023-01-17T02:54:23.624Z,3.33
2023-01-17T02:57:03.085Z,3.35
2023-01-17T02:59:42.619Z,3.36
2023-01-17T03:02:23.483Z,3.40
2023-01-17T03:04:57.668Z,3.45
2023-01-17T03:07:28.778Z,3.47
2023-01-17T03:10:00.391Z,3.52
2023-01-17T03:12:29.773Z,3.54
2023-01-17T03:14:58.161Z,3.55
2023-01-17T03:17:33.950Z,3.57
2023-01-17T03:20:02.292Z,3.56
2023-01-17T03:22:30.609Z,3.57
2023-01-17T03:24:58.925Z,3.56
2023-01-17T03:27:27.292Z,3.55
2023-01-17T03:29:55.816Z,3.52
2023-01-17T03:32:24.243Z,3.54
2023-01-17T03:34:54.063Z,3.52
2023-01-17T03:37:22.399Z,3.55
2023-01-17T03:39:50.711Z,3.53
2023-01-17T03:42:19.093Z,3.52
2023-01-17T03:44:47.483Z,3.52
2023-01-17T03:47:15.816Z,3.55
2023-01-17T03:49:44.163Z,3.52
2023-01-17T03:52:13.863Z,3.51
2023-01-17T03:54:42.182Z,3.54
2023-01-17T03:57:10.718Z,3.57
2023-01-17T03:59:39.076Z,3.59
2023-01-17T04:02:07.442Z,3.62
2023-01-17T04:04:36.058Z,3.75
2023-01-17T04:07:04.391Z,3.78
2023-01-17T04:09:35.516Z,3.77
2023-01-17T04:12:04.708Z,3.81
2023-01-17T04:14:33.072Z,3.89
2023-01-17T04:17:01.436Z,3.96
2023-01-17T04:19:37.890Z,4.05
2023-01-17T04:22:06.258Z,4.07
2023-01-17T04:24:35.977Z,4.09
2023-01-17T04:27:05.451Z,4.09
2023-01-17T04:29:34.089Z,4.09
2023-01-17T04:32:02.440Z,4.11
2023-01-17T04:34:30.765Z,4.10
2023-01-17T04:36:59.199Z,4.17
2023-01-17T04:39:27.545Z,4.14
2023-01-17T04:41:57.542Z,4.12
2023-01-17T04:44:25.870Z,4.10
2023-01-17T04:46:54.151Z,4.08
2023-01-17T04:49:22.452Z,4.16
2023-01-17T04:51:50.807Z,4.12
2023-01-17T04:54:19.299Z,4.12
2023-01-17T04:56:47.629Z,4.17
2023-01-17T04:59:17.330Z,4.18
2023-01-17T05:01:45.640Z,4.27
2023-01-17T05:04:14.003Z,4.29
2023-01-17T05:06:42.409Z,4.26
2023-01-17T05:09:10.731Z,4.25
2023-01-17T05:11:39.378Z,4.19
2023-01-17T05:14:07.746Z,4.17
2023-01-17T05:16:37.847Z,4.20
2023-01-17T05:19:06.136Z,4.23
2023-01-17T05:21:34.486Z,4.22
2023-01-17T05:24:02.813Z,4.22
2023-01-17T05:26:31.137Z,4.18
2023-01-17T05:28:59.535Z,4.19
2023-01-17T05:31:27.914Z,4.15
2023-01-17T05:33:57.594Z,4.11
2023-01-17T05:36:26.047Z,4.11
2023-01-17T05:38:54.588Z,4.21
2023-01-17T05:41:22.905Z,4.20
2023-01-17T05:43:51.313Z,4.12
2023-01-17T05:46:19.732Z,4.22
2023-01-17T05:48:48.102Z,4.26
2023-01-17T05:51:17.787Z,4.24
2023-01-17T05:53:46.145Z,4.21
2023-01-17T05:56:14.500Z,4.30
2023-01-17T05:58:42.913Z,4.29
2023-01-17T06:01:11.363Z,4.28
2023-01-17T06:03:39.799Z,4.29
2023-01-17T06:06:08.527Z,4.23
2023-01-17T06:08:38.252Z,4.25
2023-01-17T06:11:06.843Z,4.23
2023-01-17T06:13:35.582Z,4.25
2023-01-17T06:16:04.333Z,4.21
2023-01-17T06:18:33.048Z,4.22
2023-01-17T06:21:01.479Z,4.18
2023-01-17T06:23:29.880Z,4.18
2023-01-17T06:26:03.267Z,4.14
2023-01-17T06:28:32.215Z,4.18
2023-01-17T06:31:00.947Z,4.21
2023-01-17T06:33:29.283Z,4.07
2023-01-17T06:35:57.663Z,4.06
2023-01-17T06:38:27.273Z,4.03
2023-01-17T06:40:55.623Z,4.08
2023-01-17T06:43:25.307Z,4.04
2023-01-17T06:45:55.871Z,4.09
2023-01-17T06:48:24.492Z,4.09
2023-01-17T06:50:52.862Z,4.12
2023-01-17T06:53:21.211Z,4.05
2023-01-17T06:55:49.543Z,4.05
2023-01-17T06:58:17.890Z,4.18
2023-01-17T07:00:47.678Z,4.03
2023-01-17T07:03:20.969Z,4.10
2023-01-17T07:05:49.714Z,4.07
2023-01-17T07:08:18.808Z,4.21
2023-01-17T07:10:47.720Z,4.08
2023-01-17T07:13:16.120Z,4.19
2023-01-17T07:15:44.450Z,4.09
2023-01-17T07:18:14.685Z,4.18
2023-01-17T07:20:44.138Z,4.15
2023-01-17T07:23:12.484Z,4.05
2023-01-17T07:25:40.940Z,4.11
2023-01-17T07:28:09.652Z,4.16
2023-01-17T07:30:38.495Z,4.04
2023-01-17T07:33:06.852Z,4.11
2023-01-17T07:35:37.996Z,4.10
2023-01-17T07:38:11.266Z,4.15
2023-01-17T07:40:42.334Z,4.00
2023-01-17T07:43:14.430Z,4.04
2023-01-17T07:45:43.846Z,3.99
2023-01-17T07:48:13.133Z,3.98
2023-01-17T07:50:43.098Z,3.96
2023-01-17T07:53:12.089Z,4.01
2023-01-17T07:55:40.502Z,3.99
2023-01-17T07:58:11.163Z,3.97
2023-01-17T08:00:39.561Z,4.03
2023-01-17T08:03:07.940Z,4.05
2023-01-17T08:05:36.261Z,4.10
2023-01-17T08:08:06.559Z,4.06
2023-01-17T08:10:35.020Z,4.03
2023-01-17T08:13:03.392Z,4.03
2023-01-17T08:15:32.347Z,4.13
2023-01-17T08:18:00.660Z,4.06
2023-01-17T08:20:29.212Z,4.07
2023-01-17T08:22:58.013Z,4.08
2023-01-17T08:25:28.419Z,4.10
2023-01-17T08:27:58.854Z,4.16
2023-01-17T08:30:27.887Z,4.10
2023-01-17T08:32:56.471Z,4.26
2023-01-17T08:35:24.953Z,4.27
2023-01-17T08:37:56.321Z,4.19
2023-01-17T08:40:25.225Z,4.26
2023-01-17T08:42:59.652Z,4.22
2023-01-17T08:45:28.460Z,4.18
2023-01-17T08:47:58.720Z,4.27
2023-01-17T08:50:27.566Z,4.29
2023-01-17T08:53:01.214Z,4.28
2023-01-17T08:55:30.027Z,4.26
2023-01-17T08:57:59.835Z,4.24
2023-01-17T09:00:29.945Z,4.37
2023-01-17T09:02:58.251Z,4.34
2023-01-17T09:05:26.936Z,4.36
2023-01-17T09:07:56.132Z,4.33
2023-01-17T09:10:24.627Z,4.36
2023-01-17T09:12:53.407Z,4.43
2023-01-17T09:15:23.202Z,4.42
2023-01-17T09:17:51.572Z,4.41
2023-01-17T09:20:20.158Z,4.41
2023-01-17T09:22:48.494Z,4.48
2023-01-17T09:25:17.025Z,4.47
2023-01-17T09:27:46.861Z,4.51
2023-01-17T09:30:15.904Z,4.44
2023-01-17T09:32:45.592Z,4.47
2023-01-17T09:35:13.912Z,4.49
2023-01-17T09:37:42.221Z,4.47
2023-01-17T09:40:15.942Z,4.56
2023-01-17T09:42:44.772Z,4.56
2023-01-17T09:45:17.623Z,4.52
2023-01-17T09:47:51.136Z,4.50
2023-01-17T09:50:28.162Z,4.46
2023-01-17T09:53:01.627Z,4.49
2023-01-17T09:55:35.990Z,4.43
2023-01-17T09:58:07.285Z,4.38
2023-01-17T10:00:50.880Z,4.35
2023-01-17T10:03:46.264Z,4.35
2023-01-17T10:06:26.000Z,4.31
2023-01-17T10:09:10.335Z,4.39
2023-01-17T10:11:48.752Z,4.36
2023-01-17T10:14:34.232Z,4.43
2023-01-17T10:17:13.639Z,4.33
2023-01-17T10:19:57.426Z,4.31
2023-01-17T10:22:44.533Z,4.28
2023-01-17T10:25:33.176Z,4.26
2023-01-17T10:28:11.049Z,4.30
2023-01-17T10:30:45.223Z,4.31
2023-01-17T10:33:17.689Z,4.18
2023-01-17T10:35:55.208Z,4.08
2023-01-17T10:38:29.186Z,3.88
2023-01-17T10:41:03.478Z,3.85
2023-01-17T10:43:44.373Z,3.91
2023-01-17T10:46:18.140Z,3.89
2023-01-17T10:48:49.556Z,3.93
2023-01-17T10:51:35.544Z,3.89
2023-01-17T10:54:18.624Z,3.93
2023-01-17T10:56:47.290Z,3.88
2023-01-17T10:59:28.209Z,3.84
2023-01-17T11:01:57.598Z,3.75
2023-01-17T11:04:35.838Z,3.75
2023-01-17T11:07:17.691Z,3.73
2023-01-17T11:09:48.351Z,3.84
2023-01-17T11:12:30.243Z,3.80
2023-01-17T11:15:04.002Z,3.76
2023-01-17T11:17:34.107Z,3.68
2023-01-17T11:20:17.269Z,3.54
2023-01-17T11:23:02.328Z,3.59
2023-01-17T11:25:34.224Z,3.56
2023-01-17T11:28:07.067Z,3.51
2023-01-17T11:30:35.823Z,3.30
2023-01-17T11:33:08.886Z,3.38
2023-01-17T11:35:42.578Z,3.33
2023-01-17T11:38:20.435Z,3.22
2023-01-17T11:40:50.278Z,3.15
2023-01-17T11:43:24.055Z,3.02
2023-01-17T11:46:04.769Z,2.86
2023-01-17T11:48:39.210Z,2.74
2023-01-17T11:51:17.783Z,2.69
2023-01-17T11:53:49.230Z,2.59
2023-01-17T11:56:32.972Z,2.55
2023-01-17T11:59:27.918Z,2.51
2023-01-17T12:02:24.009Z,2.59
2023-01-17T12:05:07.498Z,2.70
2023-01-17T12:07:43.820Z,2.74
2023-01-17T12:10:20.595Z,2.68
2023-01-17T12:13:19.429Z,2.70
2023-01-17T12:16:25.479Z,2.83
2023-01-17T12:19:06.013Z,2.90
2023-01-17T12:21:45.175Z,3.01
2023-01-17T12:24:33.548Z,3.20
2023-01-17T12:27:11.441Z,3.23
2023-01-17T12:29:47.741Z,3.35
2023-01-17T12:32:48.378Z,3.32
2023-01-17T12:35:21.254Z,3.30
2023-01-17T12:38:04.682Z,3.31
2023-01-17T12:40:38.353Z,3.34
2023-01-17T12:43:17.191Z,3.41
2023-01-17T12:45:48.141Z,3.52
2023-01-17T12:48:19.135Z,3.50
2023-01-17T12:50:52.656Z,3.52
2023-01-17T12:53:30.548Z,3.55
2023-01-17T12:56:04.885Z,3.58
2023-01-17T12:58:39.357Z,3.68
2023-01-17T13:01:18.337Z,3.65
2023-01-17T13:04:00.225Z,3.72
2023-01-17T13:06:36.043Z,3.66
2023-01-17T13:09:06.328Z,3.73
2023-01-17T13:11:44.057Z,3.83
2023-01-17T13:14:13.842Z,3.75
2023-01-17T13:16:47.307Z,3.77
2023-01-17T13:19:23.789Z,3.81
2023-01-17T13:21:52.366Z,3.77
2023-01-17T13:24:29.340Z,3.78
2023-01-17T13:27:44.287Z,3.78
2023-01-17T13:30:56.731Z,3.88
2023-01-17T13:33:38.108Z,3.85
2023-01-17T13:36:22.833Z,3.86
2023-01-17T13:39:00.348Z,3.75
2023-01-17T13:41:45.934Z,3.68
2023-01-17T13:44:25.238Z,3.71
2023-01-17T13:47:04.208Z,3.63
2023-01-17T13:49:36.134Z,3.59
2023-01-17T13:52:12.328Z,3.70
2023-01-17T13:54:46.231Z,3.72
2023-01-17T13:57:36.110Z,3.73
2023-01-17T14:00:41.813Z,3.83
2023-01-17T14:03:12.946Z,3.75
2023-01-17T14:05:49.266Z,3.79
2023-01-17T14:08:21.809Z,3.90
2023-01-17T14:10:53.251Z,3.94
2023-01-17T14:13:35.059Z,3.91
2023-01-17T14:16:04.780Z,3.95
2023-01-17T14:18:40.795Z,3.99
2023-01-17T14:21:13.580Z,3.95
2023-01-17T14:23:50.687Z,3.87
2023-01-17T14:26:38.380Z,3.93
2023-01-17T14:29:44.360Z,3.89
2023-01-17T14:32:14.754Z,3.82
2023-01-17T14:34:47.129Z,3.92
2023-01-17T14:37:27.203Z,3.86
2023-01-17T14:39:55.634Z,3.83
2023-01-17T14:42:26.554Z,3.86
2023-01-17T14:45:01.247Z,3.96
2023-01-17T14:47:33.415Z,3.88
2023-01-17T14:50:20.497Z,3.82
2023-01-17T14:52:49.016Z,3.76
2023-01-17T14:55:19.572Z,3.82
2023-01-17T14:57:55.961Z,3.80
2023-01-17T15:00:29.190Z,3.85
2023-01-17T15:03:00.600Z,3.93
2023-01-17T15:05:31.384Z,3.92
2023-01-17T15:08:00.347Z,3.92
2023-01-17T15:10:31.503Z,3.84
2023-01-17T15:13:09.142Z,3.93
2023-01-17T15:15:42.050Z,3.80
2023-01-17T15:18:23.427Z,3.81
2023-01-17T15:20:59.568Z,3.71
2023-01-17T15:23:34.505Z,3.67
2023-01-17T15:26:05.047Z,3.62
2023-01-17T15:28:34.877Z,3.64
2023-01-17T15:31:08.930Z,3.57
2023-01-17T15:33:42.049Z,3.52
2023-01-17T15:36:22.826Z,3.50
2023-01-17T15:38:59.515Z,3.49
2023-01-17T15:41:32.025Z,3.39
2023-01-17T15:44:00.851Z,3.40
2023-01-17T15:46:32.366Z,3.33
2023-01-17T15:49:09.356Z,3.29
2023-01-17T15:51:41.553Z,3.26
2023-01-17T15:54:50.737Z,3.20
2023-01-17T15:57:23.925Z,3.17
2023-01-17T15:59:55.407Z,3.15
2023-01-17T16:02:36.624Z,3.12
2023-01-17T16:05:43.656Z,3.07
2023-01-17T16:08:32.177Z,3.03
2023-01-17T16:11:02.969Z,3.05
2023-01-17T16:13:33.584Z,3.04
2023-01-17T16:16:20.183Z,2.97
2023-01-17T16:18:50.009Z,2.98
2023-01-17T16:21:24.086Z,3.01
2023-01-17T16:23:53.913Z,2.92
2023-01-17T16:26:22.483Z,2.92
2023-01-17T16:28:51.310Z,2.86
2023-01-17T16:31:19.918Z,2.79
2023-01-17T16:33:50.565Z,2.75
2023-01-17T16:36:20.857Z,2.73
2023-01-17T16:38:52.371Z,2.70
2023-01-17T16:41:22.522Z,2.74
2023-01-17T16:43:59.188Z,2.70
2023-01-17T16:46:28.304Z,2.70
2023-01-17T16:48:56.847Z,2.64
2023-01-17T16:51:25.175Z,2.59
2023-01-17T16:53:53.529Z,2.58
2023-01-17T16:56:23.374Z,2.59
2023-01-17T16:58:53.229Z,2.57
2023-01-17T17:01:22.842Z,2.49
2023-01-17T17:03:51.517Z,2.49
2023-01-17T17:06:20.093Z,2.48
2023-01-17T17:08:48.635Z,2.43
2023-01-17T17:11:19.197Z,2.38
2023-01-17T17:13:50.391Z,2.35
2023-01-17T17:16:21.098Z,2.30
2023-01-17T17:18:56.489Z,2.30
2023-01-17T17:21:26.307Z,2.24
2023-01-17T17:23:58.141Z,2.20
2023-01-17T17:26:28.944Z,2.19
2023-01-17T17:28:59.133Z,2.15
2023-01-17T17:31:28.236Z,2.14
2023-01-17T17:33:59.033Z,2.15
2023-01-17T17:36:27.910Z,2.19
2023-01-17T17:38:57.099Z,2.21
2023-01-17T17:41:27.266Z,2.18
2023-01-17T17:43:55.992Z,2.17
2023-01-17T17:46:27.267Z,2.12
2023-01-17T17:48:56.769Z,2.12
2023-01-17T17:51:27.260Z,2.11
2023-01-17T17:53:57.251Z,2.11
2023-01-17T17:56:25.701Z,2.08
2023-01-17T17:58:54.376Z,2.04
2023-01-17T18:01:24.165Z,2.02
2023-01-17T18:03:56.035Z,1.99
2023-01-17T18:06:25.140Z,1.95
2023-01-17T18:08:53.588Z,1.95
2023-01-17T18:11:26.011Z,1.90
2023-01-17T18:13:55.967Z,1.92
2023-01-17T18:16:26.320Z,1.92
2023-01-17T18:18:57.563Z,1.86
2023-01-17T18:21:27.665Z,1.89
2023-01-17T18:23:58.700Z,1.84
2023-01-17T18:26:28.839Z,1.79
2023-01-17T18:28:58.680Z,1.80
2023-01-17T18:31:28.460Z,1.79
2023-01-17T18:33:59.855Z,1.73
2023-01-17T18:36:30.032Z,1.70
2023-01-17T18:38:58.598Z,1.65
2023-01-17T18:41:28.850Z,1.59
2023-01-17T18:43:57.416Z,1.53
2023-01-17T18:46:27.150Z,1.51
2023-01-17T18:48:58.654Z,1.51
2023-01-17T18:51:29.460Z,1.50
2023-01-17T18:53:59.476Z,1.49
2023-01-17T18:56:30.540Z,1.44
2023-01-17T18:58:59.314Z,1.43
2023-01-17T19:01:29.131Z,1.42
2023-01-17T19:04:01.264Z,1.39
2023-01-17T19:06:32.726Z,1.37
2023-01-17T19:09:02.589Z,1.35
2023-01-17T19:11:31.171Z,1.35
2023-01-17T19:13:59.483Z,1.35
2023-01-17T19:16:30.365Z,1.32
2023-01-17T19:19:05.180Z,1.38
2023-01-17T19:21:33.998Z,1.39
2023-01-17T19:24:02.765Z,1.39
2023-01-17T19:26:31.280Z,1.36
2023-01-17T19:29:00.208Z,1.37
2023-01-17T19:31:30.314Z,1.35
2023-01-17T19:34:01.035Z,1.32
2023-01-17T19:36:33.603Z,1.24
2023-01-17T19:39:05.598Z,1.18
2023-01-17T19:41:37.153Z,1.14
2023-01-17T19:44:07.426Z,1.11
2023-01-17T19:46:36.667Z,1.07
2023-01-17T19:49:08.355Z,1.02
2023-01-17T19:51:37.112Z,0.95
2023-01-17T19:54:06.718Z,0.86
2023-01-17T19:56:35.276Z,0.74
2023-01-17T19:59:03.689Z,0.61
2023-01-17T20:01:33.604Z,0.51
2023-01-17T20:04:03.683Z,0.44
2023-01-17T20:06:35.225Z,0.36
2023-01-17T20:09:05.260Z,0.31
2023-01-17T20:11:33.890Z,0.23
2023-01-17T20:14:02.335Z,0.17
2023-01-17T20:16:31.949Z,0.12
2023-01-17T20:19:02.784Z,0.09
2023-01-17T20:21:34.368Z,0.04
2023-01-17T20:24:04.206Z,0.01
2023-01-17T20:26:37.544Z,0.01
2023-01-17T20:29:10.593Z,-0.02
2023-01-17T20:31:40.567Z,-0.03
2023-01-17T20:34:10.686Z,-0.04
2023-01-17T20:36:41.640Z,-0.05
2023-01-17T20:39:12.199Z,-0.08
2023-01-17T20:41:42.213Z,-0.10
2023-01-17T20:44:13.943Z,-0.14
2023-01-17T20:46:43.261Z,-0.18
2023-01-17T20:49:14.617Z,-0.22
2023-01-17T20:51:45.399Z,-0.25
2023-01-17T20:54:15.628Z,-0.27
2023-01-17T20:56:47.065Z,-0.28
2023-01-17T20:59:17.492Z,-0.29
2023-01-17T21:01:46.641Z,-0.31
2023-01-17T21:04:15.571Z,-0.32
2023-01-17T21:06:45.363Z,-0.34
2023-01-17T21:09:17.033Z,-0.37
2023-01-17T21:11:45.424Z,-0.39
2023-01-17T21:14:13.823Z,-0.38
2023-01-17T21:16:42.306Z,-0.41
2023-01-17T21:19:12.095Z,-0.46
2023-01-17T21:21:40.527Z,-0.45
2023-01-17T21:24:16.129Z,-0.44
2023-01-17T21:26:45.632Z,-0.42
2023-01-17T21:29:15.961Z,-0.41
2023-01-17T21:31:45.182Z,-0.40
2023-01-17T21:34:14.567Z,-0.42
2023-01-17T21:36:44.006Z,-0.42
2023-01-17T21:39:16.562Z,-0.43
2023-01-17T21:41:47.787Z,-0.45
2023-01-17T21:44:20.210Z,-0.45
2023-01-17T21:46:48.999Z,-0.51
2023-01-17T21:49:17.448Z,-0.53
2023-01-17T21:51:59.721Z,-0.57
2023-01-17T21:54:48.151Z,-0.58
2023-01-17T21:57:35.957Z,-0.61
2023-01-17T22:00:06.376Z,-0.64
2023-01-17T22:02:34.922Z,-0.65
2023-01-17T22:05:03.263Z,-0.68
2023-01-17T22:07:31.571Z,-0.72
2023-01-17T22:10:01.471Z,-0.76
2023-01-17T22:12:29.760Z,-0.77
2023-01-17T22:14:58.092Z,-0.79
2023-01-17T22:17:26.400Z,-0.79
2023-01-17T22:19:54.888Z,-0.79
2023-01-17T22:22:23.231Z,-0.79
2023-01-17T22:24:51.551Z,-0.78
2023-01-17T22:27:21.239Z,-0.81
2023-01-17T22:29:49.599Z,-0.79
2023-01-17T22:32:17.974Z,-0.77
2023-01-17T22:34:46.331Z,-0.79
2023-01-17T22:37:15.521Z,-0.78
2023-01-17T22:39:43.887Z,-0.76
2023-01-17T22:42:13.314Z,-0.74
2023-01-17T22:44:43.089Z,-0.73
2023-01-17T22:47:11.403Z,-0.72
2023-01-17T22:49:39.777Z,-0.70
2023-01-17T22:52:08.096Z,-0.72
2023-01-17T22:54:36.498Z,-0.72
2023-01-17T22:57:06.134Z,-0.74
2023-01-17T22:59:35.367Z,-0.74
2023-01-17T23:02:05.133Z,-0.78
2023-01-17T23:04:33.769Z,-0.83
2023-01-17T23:07:04.741Z,-0.85
2023-01-17T23:09:33.274Z,-0.89
2023-01-17T23:12:01.704Z,-0.92
2023-01-17T23:14:51.880Z,-0.98
2023-01-17T23:17:40.722Z,-1.04
2023-01-17T23:20:11.487Z,-1.09
2023-01-17T23:22:39.908Z,-1.09
2023-01-17T23:25:10.941Z,-1.11
2023-01-17T23:27:59.101Z,-1.12
2023-01-17T23:30:29.758Z,-1.15
2023-01-17T23:33:01.049Z,-1.18
2023-01-17T23:35:32.223Z,-1.21
2023-01-17T23:38:18.967Z,-1.23
2023-01-17T23:41:07.625Z,-1.27
2023-01-17T23:43:36.188Z,-1.26
2023-01-17T23:46:06.172Z,-1.26
2023-01-17T23:48:35.846Z,-1.26
2023-01-17T23:51:07.888Z,-1.26
2023-01-17T23:53:37.760Z,-1.26
2023-01-17T23:56:11.419Z,-1.24
2023-01-17T23:58:39.713Z,-1.22
